»·PEaware :: AAL688 KPDX-KRNO

AAL688 :: KPDX-KRNO

FLIGHT INFORMATION

Flight Status: Arrived
Operator:
American Airlines
More flights by this operator :: More flights under this callsign
Pilot: Anonymous 14085 (14085)
Aircraft: MCDONNELL-DOUGLAS MD-82
(MD82)
More flights by this aircraft type
Origin: KPDX Portland Intl
United States
Destination: KRNO Reno/Tahoe Intl
United States
More flights between these airports :: More routes between these airports
Route: +PTLD1 PAWLI BAARB FMG
File this flight plan on PilotEdge
Remarks:
Altitude:
(Current/Filed)
33,000ft
Speed:
(Current/Filed)
450kts
Departed: 26-Jan-17 08:39 PM
Arrived: 26-Jan-17 09:43 PM
Distance/Time
Traveled:
386nm/1:04
Distance/Time
To Go:
Arrived

Flight Plot

Page will automatically refresh every two minutes.

Flight plan parsing failed; only flown route is shown


Map Options




Map Legend


Flown Route
Filed Route
Departure Airport
Arrival Airport
Navaid (VOR, NDB)
Fix

Horizontal Profiles

Position Reports

Time Latitude Longitude Heading Altitude Ground
Speed
26-Jan-17 19:32 45.589861 -122.600136 85 35ft 0kts
26-Jan-17 19:33 45.589861 -122.600136 85 35ft 0kts
26-Jan-17 19:34 45.589861 -122.600136 85 35ft 0kts
26-Jan-17 19:35 45.589861 -122.600136 85 35ft 0kts
26-Jan-17 19:36 45.589861 -122.600136 85 35ft 0kts
26-Jan-17 19:37 45.589861 -122.600136 85 35ft 0kts
26-Jan-17 19:38 45.589861 -122.600136 85 35ft 0kts
26-Jan-17 19:39 45.589861 -122.600136 85 35ft 0kts
26-Jan-17 19:40 45.589861 -122.600136 85 35ft 0kts
26-Jan-17 19:41 45.589861 -122.600136 85 35ft 0kts
26-Jan-17 19:42 45.589861 -122.600136 85 35ft 0kts
26-Jan-17 19:43 45.589861 -122.600136 85 35ft 0kts
26-Jan-17 19:44 45.589861 -122.600136 85 35ft 0kts
26-Jan-17 19:45 45.589861 -122.600136 85 35ft 0kts
26-Jan-17 19:46 45.589861 -122.600136 85 35ft 0kts
26-Jan-17 19:47 45.589861 -122.600136 85 35ft 0kts
26-Jan-17 19:48 45.589861 -122.600136 85 35ft 0kts
26-Jan-17 19:49 45.589861 -122.600136 85 35ft 0kts
26-Jan-17 19:50 45.589861 -122.600136 85 35ft 0kts
26-Jan-17 19:51 45.589861 -122.600136 85 35ft 0kts
26-Jan-17 19:52 45.589861 -122.600136 85 35ft 0kts
26-Jan-17 19:53 45.589861 -122.600136 85 35ft 0kts
26-Jan-17 19:54 45.589861 -122.600136 85 35ft 0kts
26-Jan-17 19:55 45.589861 -122.600136 85 35ft 0kts
26-Jan-17 19:56 45.589861 -122.600136 85 35ft 0kts
26-Jan-17 19:57 45.589861 -122.600136 85 35ft 0kts
26-Jan-17 19:58 45.589861 -122.600136 85 35ft 0kts
26-Jan-17 19:59 45.589861 -122.600136 85 35ft 0kts
26-Jan-17 20:00 45.589861 -122.600136 85 35ft 0kts
26-Jan-17 20:01 45.589861 -122.600136 85 35ft 0kts
26-Jan-17 20:02 45.589861 -122.600136 85 35ft 0kts
26-Jan-17 20:03 45.589861 -122.600136 85 35ft 0kts
26-Jan-17 20:04 45.589861 -122.600136 85 35ft 0kts
26-Jan-17 20:05 45.589861 -122.600136 85 35ft 0kts
26-Jan-17 20:06 45.589861 -122.600136 85 35ft 0kts
26-Jan-17 20:07 45.589861 -122.600136 85 35ft 0kts
26-Jan-17 20:08 45.589861 -122.600136 85 35ft 0kts
26-Jan-17 20:09 45.589861 -122.600136 85 35ft 0kts
26-Jan-17 20:10 45.589861 -122.600136 85 35ft 0kts
26-Jan-17 20:11 45.589861 -122.600136 85 35ft 0kts
26-Jan-17 20:12 45.589861 -122.600136 85 35ft 0kts
26-Jan-17 20:13 45.589861 -122.600136 85 35ft 0kts
26-Jan-17 20:14 45.589861 -122.600136 85 35ft 0kts
26-Jan-17 20:15 45.589861 -122.600136 85 35ft 0kts
26-Jan-17 20:16 45.589861 -122.600136 85 35ft 0kts
26-Jan-17 20:17 45.589861 -122.600136 85 35ft 0kts
26-Jan-17 20:18 45.589861 -122.600136 85 35ft 0kts
26-Jan-17 20:19 45.589861 -122.600136 85 35ft 0kts
26-Jan-17 20:20 45.589861 -122.600136 85 35ft 0kts
26-Jan-17 20:21 45.589861 -122.600136 85 35ft 0kts
26-Jan-17 20:22 45.589861 -122.600136 85 35ft 0kts
26-Jan-17 20:23 45.589861 -122.600136 85 35ft 0kts
26-Jan-17 20:24 45.589861 -122.600136 85 35ft 0kts
26-Jan-17 20:25 45.589861 -122.600136 85 35ft 0kts
26-Jan-17 20:26 45.589861 -122.600136 85 35ft 0kts
26-Jan-17 20:27 45.589861 -122.600136 85 35ft 0kts
26-Jan-17 20:28 45.589861 -122.600136 85 35ft 0kts
26-Jan-17 20:29 45.589861 -122.600136 85 35ft 0kts
26-Jan-17 20:30 45.589861 -122.600136 85 35ft 0kts
26-Jan-17 20:31 45.589861 -122.600136 85 35ft 0kts
26-Jan-17 20:32 45.589861 -122.600136 85 35ft 0kts
26-Jan-17 20:33 45.589818 -122.600859 85 35ft 10kts
26-Jan-17 20:34 45.589780 -122.601780 101 35ft 0kts
26-Jan-17 20:35 45.589665 -122.601456 123 35ft 5kts
26-Jan-17 20:36 45.590589 -122.605515 313 35ft 25kts
26-Jan-17 20:37 45.595209 -122.616789 298 35ft 33kts
26-Jan-17 20:38 45.595856 -122.620527 222 35ft 5kts
26-Jan-17 20:39 45.586019 -122.597701 116 354ft 167kts
26-Jan-17 20:40 45.563531 -122.523883 112 2511ft 256kts
26-Jan-17 20:41 45.533370 -122.418554 111 5201ft 304kts
26-Jan-17 20:42 45.505011 -122.319451 111 9523ft 276kts
26-Jan-17 20:43 45.476835 -122.220682 110 13973ft 264kts
26-Jan-17 20:44 45.405217 -122.180134 163 15037ft 361kts
26-Jan-17 20:45 45.312192 -122.131531 156 16986ft 357kts
26-Jan-17 20:46 45.218313 -122.076873 156 19979ft 374kts
26-Jan-17 20:47 45.121944 -122.020714 156 22954ft 377kts
26-Jan-17 20:48 45.026267 -121.965180 155 25902ft 367kts
26-Jan-17 20:49 44.931512 -121.910316 155 27727ft 380kts
26-Jan-17 20:50 44.830818 -121.851666 156 28891ft 410kts
26-Jan-17 20:51 44.721632 -121.788924 157 29947ft 441kts
26-Jan-17 20:52 44.604956 -121.722212 157 31000ft 467kts
26-Jan-17 20:53 44.482851 -121.652723 157 32038ft 480kts
26-Jan-17 20:54 44.360232 -121.583235 157 32814ft 488kts
26-Jan-17 20:55 44.234196 -121.512152 157 33295ft 491kts
26-Jan-17 20:56 44.107266 -121.440894 157 33500ft 494kts
26-Jan-17 20:57 43.980370 -121.369977 157 33503ft 493kts
26-Jan-17 20:58 43.853603 -121.299468 157 33504ft 493kts
26-Jan-17 20:59 43.726300 -121.228982 157 33508ft 493kts
26-Jan-17 21:00 43.601864 -121.160413 157 33499ft 468kts
26-Jan-17 21:01 43.480363 -121.093735 157 33510ft 473kts
26-Jan-17 21:02 43.359341 -121.027603 156 33504ft 487kts
26-Jan-17 21:03 43.234122 -120.959490 156 33500ft 487kts
26-Jan-17 21:04 43.106424 -120.900054 161 33498ft 488kts
26-Jan-17 21:05 42.977658 -120.846109 161 33512ft 491kts
26-Jan-17 21:06 42.846271 -120.791723 160 33517ft 498kts
26-Jan-17 21:07 42.757331 -120.755014 161 33517ft 498kts
26-Jan-17 21:08 42.624865 -120.700607 160 33518ft 498kts
26-Jan-17 21:09 42.493057 -120.646679 160 33516ft 498kts
26-Jan-17 21:10 42.362972 -120.593708 161 33507ft 497kts
26-Jan-17 21:11 42.230623 -120.540034 160 33507ft 498kts
26-Jan-17 21:12 42.098373 -120.486639 160 33510ft 498kts
26-Jan-17 21:13 41.966207 -120.433543 161 33513ft 498kts
26-Jan-17 21:14 41.833811 -120.380611 160 33508ft 498kts
26-Jan-17 21:15 41.701350 -120.327921 161 33497ft 498kts
26-Jan-17 21:16 41.578307 -120.279133 161 33500ft 498kts
26-Jan-17 21:17 41.447348 -120.227392 161 33503ft 498kts
26-Jan-17 21:18 41.316684 -120.176117 160 33491ft 498kts
26-Jan-17 21:19 41.184041 -120.124151 160 33492ft 503kts
26-Jan-17 21:20 41.048575 -120.082465 165 33499ft 508kts
26-Jan-17 21:21 40.910090 -120.042762 165 33496ft 509kts
26-Jan-17 21:22 40.772360 -120.003417 165 33468ft 511kts
26-Jan-17 21:23 40.634356 -119.964170 165 31964ft 507kts
26-Jan-17 21:24 40.497028 -119.925266 165 30521ft 506kts
26-Jan-17 21:25 40.386261 -119.893901 165 29310ft 506kts
26-Jan-17 21:26 40.249203 -119.854991 165 27805ft 506kts
26-Jan-17 21:27 40.112107 -119.816627 165 26302ft 505kts
26-Jan-17 21:28 39.975109 -119.778434 165 24822ft 505kts
26-Jan-17 21:29 39.838543 -119.740527 165 23341ft 502kts
26-Jan-17 21:30 39.707599 -119.703599 161 20957ft 469kts
26-Jan-17 21:31 39.597516 -119.629052 135 18364ft 434kts
26-Jan-17 21:32 39.531204 -119.515525 107 16523ft 344kts
26-Jan-17 21:33 39.522725 -119.413663 69 15992ft 243kts
26-Jan-17 21:34 39.562438 -119.349653 27 16014ft 232kts
26-Jan-17 21:35 39.625995 -119.345547 344 16001ft 241kts
26-Jan-17 21:36 39.675342 -119.406205 301 16000ft 262kts
26-Jan-17 21:37 39.689339 -119.501285 283 16001ft 271kts
26-Jan-17 21:38 39.691068 -119.599702 260 15267ft 280kts
26-Jan-17 21:39 39.660792 -119.690343 229 13583ft 263kts
26-Jan-17 21:40 39.608432 -119.741613 200 10590ft 225kts
26-Jan-17 21:41 39.550114 -119.765717 191 5669ft 208kts
26-Jan-17 21:42 39.502589 -119.769235 179 4422ft 121kts
26-Jan-17 21:43 39.492642 -119.771181 294 4421ft 9kts
26-Jan-17 21:44 39.496464 -119.771528 0 4421ft 15kts
26-Jan-17 21:45 39.501639 -119.771504 0 4421ft 23kts
26-Jan-17 21:46 39.505896 -119.771897 280 4421ft 10kts
26-Jan-17 21:47 39.505317 -119.773156 185 4421ft 0kts
26-Jan-17 21:48 39.505317 -119.773156 185 4421ft 0kts
26-Jan-17 21:49 39.505317 -119.773156 185 4421ft 0kts
26-Jan-17 21:50 39.505317 -119.773156 185 4421ft 0kts
26-Jan-17 21:51 39.505317 -119.773156 185 4421ft 0kts
26-Jan-17 21:52 39.505317 -119.773156 185 4421ft 0kts
26-Jan-17 21:53 39.505317 -119.773156 185 4421ft 0kts

Navigation Log

Ident Type
Flight plan parsing failed, navigation log unavailable